sensor_id;sensor_type;location;lat;lon;timestamp;temperature;humidity
17425;DHT22;8830;50.978;5.058;2022-09-25T00:00:57;13.30;99.90
17425;DHT22;8830;50.978;5.058;2022-09-25T00:03:26;13.30;99.90
17425;DHT22;8830;50.978;5.058;2022-09-25T00:06:00;13.30;99.90
17425;DHT22;8830;50.978;5.058;2022-09-25T00:08:27;13.30;99.90
17425;DHT22;8830;50.978;5.058;2022-09-25T00:10:55;13.30;99.90
17425;DHT22;8830;50.978;5.058;2022-09-25T00:13:22;13.30;99.90
17425;DHT22;8830;50.978;5.058;2022-09-25T00:15:51;13.20;99.90
17425;DHT22;8830;50.978;5.058;2022-09-25T00:18:21;13.20;99.90
17425;DHT22;8830;50.978;5.058;2022-09-25T00:21:02;13.20;99.90
17425;DHT22;8830;50.978;5.058;2022-09-25T00:23:30;13.20;99.90
17425;DHT22;8830;50.978;5.058;2022-09-25T00:25:58;13.20;99.90
17425;DHT22;8830;50.978;5.058;2022-09-25T00:28:26;13.20;99.90
17425;DHT22;8830;50.978;5.058;2022-09-25T00:30:54;13.00;99.90
17425;DHT22;8830;50.978;5.058;2022-09-25T00:33:23;13.10;99.90
17425;DHT22;8830;50.978;5.058;2022-09-25T00:35:50;13.20;99.90
17425;DHT22;8830;50.978;5.058;2022-09-25T00:38:17;13.10;99.90
17425;DHT22;8830;50.978;5.058;2022-09-25T00:40:44;13.10;99.90
17425;DHT22;8830;50.978;5.058;2022-09-25T00:43:13;13.10;99.90
17425;DHT22;8830;50.978;5.058;2022-09-25T00:45:40;13.00;99.90
17425;DHT22;8830;50.978;5.058;2022-09-25T00:48:10;13.00;99.90
17425;DHT22;8830;50.978;5.058;2022-09-25T00:50:45;13.00;99.90
17425;DHT22;8830;50.978;5.058;2022-09-25T00:53:19;13.00;99.90
17425;DHT22;8830;50.978;5.058;2022-09-25T00:55:48;13.00;99.90
17425;DHT22;8830;50.978;5.058;2022-09-25T00:58:18;12.90;99.90
17425;DHT22;8830;50.978;5.058;2022-09-25T01:00:45;12.90;99.90
17425;DHT22;8830;50.978;5.058;2022-09-25T01:03:13;12.90;99.90
17425;DHT22;8830;50.978;5.058;2022-09-25T01:05:43;12.90;99.90
17425;DHT22;8830;50.978;5.058;2022-09-25T01:08:18;12.90;99.90
17425;DHT22;8830;50.978;5.058;2022-09-25T01:10:46;12.90;99.90
17425;DHT22;8830;50.978;5.058;2022-09-25T01:13:14;12.90;99.90
17425;DHT22;8830;50.978;5.058;2022-09-25T01:15:47;12.90;99.90
17425;DHT22;8830;50.978;5.058;2022-09-25T01:18:24;12.90;99.90
17425;DHT22;8830;50.978;5.058;2022-09-25T01:21:06;12.90;99.90
17425;DHT22;8830;50.978;5.058;2022-09-25T01:23:59;13.00;99.90
17425;DHT22;8830;50.978;5.058;2022-09-25T01:29:26;12.90;99.90
17425;DHT22;8830;50.978;5.058;2022-09-25T01:32:01;12.80;99.90
17425;DHT22;8830;50.978;5.058;2022-09-25T01:34:36;12.90;99.90
17425;DHT22;8830;50.978;5.058;2022-09-25T01:37:09;12.80;99.90
17425;DHT22;8830;50.978;5.058;2022-09-25T01:39:42;12.80;99.90
17425;DHT22;8830;50.978;5.058;2022-09-25T01:42:17;12.80;99.90
17425;DHT22;8830;50.978;5.058;2022-09-25T01:44:51;12.80;99.90
17425;DHT22;8830;50.978;5.058;2022-09-25T01:47:22;12.70;99.90
17425;DHT22;8830;50.978;5.058;2022-09-25T01:49:53;12.70;99.90
17425;DHT22;8830;50.978;5.058;2022-09-25T01:52:26;12.70;99.90
17425;DHT22;8830;50.978;5.058;2022-09-25T01:54:57;12.70;99.90
17425;DHT22;8830;50.978;5.058;2022-09-25T01:57:28;12.70;99.90
17425;DHT22;8830;50.978;5.058;2022-09-25T02:00:00;12.70;99.90
17425;DHT22;8830;50.978;5.058;2022-09-25T02:02:32;12.60;99.90
17425;DHT22;8830;50.978;5.058;2022-09-25T02:05:08;12.60;99.90
17425;DHT22;8830;50.978;5.058;2022-09-25T02:07:45;12.60;99.90
17425;DHT22;8830;50.978;5.058;2022-09-25T02:10:15;12.60;99.90
17425;DHT22;8830;50.978;5.058;2022-09-25T02:12:46;12.50;99.90
17425;DHT22;8830;50.978;5.058;2022-09-25T02:15:17;12.50;99.90
17425;DHT22;8830;50.978;5.058;2022-09-25T02:17:50;12.50;99.90
17425;DHT22;8830;50.978;5.058;2022-09-25T02:20:38;12.50;99.90
17425;DHT22;8830;50.978;5.058;2022-09-25T02:23:11;12.50;99.90
17425;DHT22;8830;50.978;5.058;2022-09-25T02:25:45;12.40;99.90
17425;DHT22;8830;50.978;5.058;2022-09-25T02:28:15;12.50;99.90
17425;DHT22;8830;50.978;5.058;2022-09-25T02:30:45;12.40;99.90
17425;DHT22;8830;50.978;5.058;2022-09-25T02:33:13;12.40;99.90
17425;DHT22;8830;50.978;5.058;2022-09-25T02:35:40;12.40;99.90
17425;DHT22;8830;50.978;5.058;2022-09-25T02:38:08;12.40;99.90
17425;DHT22;8830;50.978;5.058;2022-09-25T02:40:40;12.30;99.90
17425;DHT22;8830;50.978;5.058;2022-09-25T02:43:19;12.30;99.90
17425;DHT22;8830;50.978;5.058;2022-09-25T02:45:56;12.30;99.90
17425;DHT22;8830;50.978;5.058;2022-09-25T02:48:33;12.30;99.90
17425;DHT22;8830;50.978;5.058;2022-09-25T02:51:07;12.30;99.90
17425;DHT22;8830;50.978;5.058;2022-09-25T02:53:39;12.30;99.90
17425;DHT22;8830;50.978;5.058;2022-09-25T02:56:12;12.20;99.90
17425;DHT22;8830;50.978;5.058;2022-09-25T02:58:41;12.20;99.90
17425;DHT22;8830;50.978;5.058;2022-09-25T03:01:16;12.20;99.90
17425;DHT22;8830;50.978;5.058;2022-09-25T03:03:46;12.20;99.90
17425;DHT22;8830;50.978;5.058;2022-09-25T03:06:15;12.20;99.90
17425;DHT22;8830;50.978;5.058;2022-09-25T03:08:44;12.10;99.90
17425;DHT22;8830;50.978;5.058;2022-09-25T03:11:16;12.10;99.90
17425;DHT22;8830;50.978;5.058;2022-09-25T03:13:44;12.00;99.90
17425;DHT22;8830;50.978;5.058;2022-09-25T03:16:16;12.00;99.90
17425;DHT22;8830;50.978;5.058;2022-09-25T03:18:44;12.00;99.90
17425;DHT22;8830;50.978;5.058;2022-09-25T03:21:12;11.90;99.90
17425;DHT22;8830;50.978;5.058;2022-09-25T03:23:39;11.80;99.90
17425;DHT22;8830;50.978;5.058;2022-09-25T03:26:06;11.80;99.90
17425;DHT22;8830;50.978;5.058;2022-09-25T03:28:33;11.80;99.90
17425;DHT22;8830;50.978;5.058;2022-09-25T03:31:02;11.70;99.90
17425;DHT22;8830;50.978;5.058;2022-09-25T03:33:34;11.70;99.90
17425;DHT22;8830;50.978;5.058;2022-09-25T03:36:04;11.60;99.90
17425;DHT22;8830;50.978;5.058;2022-09-25T03:38:32;11.60;99.90
17425;DHT22;8830;50.978;5.058;2022-09-25T03:41:00;11.60;99.90
17425;DHT22;8830;50.978;5.058;2022-09-25T03:43:27;11.60;99.90
17425;DHT22;8830;50.978;5.058;2022-09-25T03:46:01;11.50;99.90
17425;DHT22;8830;50.978;5.058;2022-09-25T03:48:28;11.50;99.90
17425;DHT22;8830;50.978;5.058;2022-09-25T03:50:58;11.50;99.90
17425;DHT22;8830;50.978;5.058;2022-09-25T03:53:26;11.40;99.90
17425;DHT22;8830;50.978;5.058;2022-09-25T03:55:55;11.40;99.90
17425;DHT22;8830;50.978;5.058;2022-09-25T03:58:22;11.50;99.90
17425;DHT22;8830;50.978;5.058;2022-09-25T04:00:49;11.30;99.90
17425;DHT22;8830;50.978;5.058;2022-09-25T04:03:17;11.30;99.90
17425;DHT22;8830;50.978;5.058;2022-09-25T04:05:46;11.30;99.90
17425;DHT22;8830;50.978;5.058;2022-09-25T04:08:15;11.20;99.90
17425;DHT22;8830;50.978;5.058;2022-09-25T04:10:42;11.10;99.90
17425;DHT22;8830;50.978;5.058;2022-09-25T04:13:09;11.10;99.90
17425;DHT22;8830;50.978;5.058;2022-09-25T04:15:38;11.10;99.90
17425;DHT22;8830;50.978;5.058;2022-09-25T04:18:05;11.00;99.90
17425;DHT22;8830;50.978;5.058;2022-09-25T04:20:32;11.00;99.90
17425;DHT22;8830;50.978;5.058;2022-09-25T04:22:59;11.00;99.90
17425;DHT22;8830;50.978;5.058;2022-09-25T04:25:28;11.00;99.90
17425;DHT22;8830;50.978;5.058;2022-09-25T04:27:56;11.00;99.90
17425;DHT22;8830;50.978;5.058;2022-09-25T04:30:24;11.00;99.90
17425;DHT22;8830;50.978;5.058;2022-09-25T04:32:51;10.90;99.90
17425;DHT22;8830;50.978;5.058;2022-09-25T04:35:32;11.00;99.90
17425;DHT22;8830;50.978;5.058;2022-09-25T04:38:00;10.90;99.90
17425;DHT22;8830;50.978;5.058;2022-09-25T04:40:29;10.90;99.90
17425;DHT22;8830;50.978;5.058;2022-09-25T04:42:57;10.80;99.90
17425;DHT22;8830;50.978;5.058;2022-09-25T04:45:25;10.80;99.90
17425;DHT22;8830;50.978;5.058;2022-09-25T04:47:52;10.80;99.90
17425;DHT22;8830;50.978;5.058;2022-09-25T04:50:20;10.80;99.90
17425;DHT22;8830;50.978;5.058;2022-09-25T04:52:48;10.70;99.90
17425;DHT22;8830;50.978;5.058;2022-09-25T04:55:16;10.60;99.90
17425;DHT22;8830;50.978;5.058;2022-09-25T04:57:45;10.60;99.90
17425;DHT22;8830;50.978;5.058;2022-09-25T05:00:17;10.60;99.90
17425;DHT22;8830;50.978;5.058;2022-09-25T05:02:44;10.60;99.90
17425;DHT22;8830;50.978;5.058;2022-09-25T05:05:12;10.60;99.90
17425;DHT22;8830;50.978;5.058;2022-09-25T05:07:49;10.50;99.90
17425;DHT22;8830;50.978;5.058;2022-09-25T05:10:16;10.60;99.90
17425;DHT22;8830;50.978;5.058;2022-09-25T05:12:44;10.50;99.90
17425;DHT22;8830;50.978;5.058;2022-09-25T05:15:12;10.60;99.90
17425;DHT22;8830;50.978;5.058;2022-09-25T05:17:39;10.40;99.90
17425;DHT22;8830;50.978;5.058;2022-09-25T05:20:07;10.40;99.90
17425;DHT22;8830;50.978;5.058;2022-09-25T05:22:34;11.90;99.90
17425;DHT22;8830;50.978;5.058;2022-09-25T05:25:01;10.30;99.90
17425;DHT22;8830;50.978;5.058;2022-09-25T05:27:28;10.30;99.90
17425;DHT22;8830;50.978;5.058;2022-09-25T05:29:56;10.30;99.90
17425;DHT22;8830;50.978;5.058;2022-09-25T05:32:23;10.30;99.90
17425;DHT22;8830;50.978;5.058;2022-09-25T05:34:50;10.30;99.90
17425;DHT22;8830;50.978;5.058;2022-09-25T05:37:17;10.20;99.90
17425;DHT22;8830;50.978;5.058;2022-09-25T05:39:44;10.20;99.90
17425;DHT22;8830;50.978;5.058;2022-09-25T05:42:12;10.30;99.90
17425;DHT22;8830;50.978;5.058;2022-09-25T05:44:40;12.80;99.90
17425;DHT22;8830;50.978;5.058;2022-09-25T05:47:08;10.20;99.90
17425;DHT22;8830;50.978;5.058;2022-09-25T05:49:35;10.30;99.90
17425;DHT22;8830;50.978;5.058;2022-09-25T05:52:02;10.30;99.90
17425;DHT22;8830;50.978;5.058;2022-09-25T05:54:29;10.30;99.90
17425;DHT22;8830;50.978;5.058;2022-09-25T05:56:56;10.30;99.90
17425;DHT22;8830;50.978;5.058;2022-09-25T05:59:23;10.40;99.90
17425;DHT22;8830;50.978;5.058;2022-09-25T06:01:50;10.40;99.90
17425;DHT22;8830;50.978;5.058;2022-09-25T06:04:18;10.40;99.90
17425;DHT22;8830;50.978;5.058;2022-09-25T06:06:45;10.40;99.90
17425;DHT22;8830;50.978;5.058;2022-09-25T06:09:13;10.40;99.90
17425;DHT22;8830;50.978;5.058;2022-09-25T06:11:40;10.40;99.90
17425;DHT22;8830;50.978;5.058;2022-09-25T06:14:12;10.40;99.90
17425;DHT22;8830;50.978;5.058;2022-09-25T06:16:39;10.40;99.90
17425;DHT22;8830;50.978;5.058;2022-09-25T06:19:06;10.40;99.90
17425;DHT22;8830;50.978;5.058;2022-09-25T06:21:35;10.00;99.90
17425;DHT22;8830;50.978;5.058;2022-09-25T06:24:02;10.20;99.90
17425;DHT22;8830;50.978;5.058;2022-09-25T06:26:29;10.20;99.90
17425;DHT22;8830;50.978;5.058;2022-09-25T06:28:58;10.30;99.90
17425;DHT22;8830;50.978;5.058;2022-09-25T06:31:25;10.30;99.90
17425;DHT22;8830;50.978;5.058;2022-09-25T06:33:52;10.30;99.90
17425;DHT22;8830;50.978;5.058;2022-09-25T06:36:19;10.30;99.90
17425;DHT22;8830;50.978;5.058;2022-09-25T06:38:49;10.30;99.90
17425;DHT22;8830;50.978;5.058;2022-09-25T06:41:19;10.40;99.90
17425;DHT22;8830;50.978;5.058;2022-09-25T06:43:47;10.40;99.90
17425;DHT22;8830;50.978;5.058;2022-09-25T06:46:15;10.40;99.90
17425;DHT22;8830;50.978;5.058;2022-09-25T06:48:43;10.40;99.90
17425;DHT22;8830;50.978;5.058;2022-09-25T06:51:10;10.60;99.90
17425;DHT22;8830;50.978;5.058;2022-09-25T06:53:37;10.60;99.90
17425;DHT22;8830;50.978;5.058;2022-09-25T06:56:05;13.00;99.90
17425;DHT22;8830;50.978;5.058;2022-09-25T06:58:32;10.50;99.90
17425;DHT22;8830;50.978;5.058;2022-09-25T07:01:00;10.50;99.90
17425;DHT22;8830;50.978;5.058;2022-09-25T07:03:27;10.60;99.90
17425;DHT22;8830;50.978;5.058;2022-09-25T07:06:14;10.80;99.90
17425;DHT22;8830;50.978;5.058;2022-09-25T07:08:42;13.40;99.90
17425;DHT22;8830;50.978;5.058;2022-09-25T07:11:13;14.60;99.90
17425;DHT22;8830;50.978;5.058;2022-09-25T07:13:41;14.60;99.90
17425;DHT22;8830;50.978;5.058;2022-09-25T07:16:12;15.80;99.90
17425;DHT22;8830;50.978;5.058;2022-09-25T07:18:40;17.00;99.90
17425;DHT22;8830;50.978;5.058;2022-09-25T07:21:10;18.00;99.90
17425;DHT22;8830;50.978;5.058;2022-09-25T07:23:38;18.00;99.90
17425;DHT22;8830;50.978;5.058;2022-09-25T07:26:08;18.50;99.90
17425;DHT22;8830;50.978;5.058;2022-09-25T07:28:39;18.90;99.90
17425;DHT22;8830;50.978;5.058;2022-09-25T07:34:19;19.60;99.90
17425;DHT22;8830;50.978;5.058;2022-09-25T07:36:46;19.70;99.90
17425;DHT22;8830;50.978;5.058;2022-09-25T07:39:17;19.70;99.90
17425;DHT22;8830;50.978;5.058;2022-09-25T07:41:45;20.10;99.90
17425;DHT22;8830;50.978;5.058;2022-09-25T07:44:13;20.10;99.90
17425;DHT22;8830;50.978;5.058;2022-09-25T07:46:41;20.40;99.90
17425;DHT22;8830;50.978;5.058;2022-09-25T07:49:08;20.60;99.90
17425;DHT22;8830;50.978;5.058;2022-09-25T07:51:36;20.80;99.90
17425;DHT22;8830;50.978;5.058;2022-09-25T07:54:03;21.00;99.90
17425;DHT22;8830;50.978;5.058;2022-09-25T07:56:31;21.00;99.90
17425;DHT22;8830;50.978;5.058;2022-09-25T07:58:59;21.30;99.90
17425;DHT22;8830;50.978;5.058;2022-09-25T08:01:30;21.40;99.90
17425;DHT22;8830;50.978;5.058;2022-09-25T08:03:57;21.40;99.90
17425;DHT22;8830;50.978;5.058;2022-09-25T08:06:24;21.50;99.90
17425;DHT22;8830;50.978;5.058;2022-09-25T08:08:52;21.60;99.90
17425;DHT22;8830;50.978;5.058;2022-09-25T08:11:19;21.50;99.90
17425;DHT22;8830;50.978;5.058;2022-09-25T08:13:47;21.50;99.90
17425;DHT22;8830;50.978;5.058;2022-09-25T08:16:17;21.50;99.90
17425;DHT22;8830;50.978;5.058;2022-09-25T08:18:52;21.60;99.90
17425;DHT22;8830;50.978;5.058;2022-09-25T08:21:19;21.60;99.90
17425;DHT22;8830;50.978;5.058;2022-09-25T08:23:48;21.40;99.90
17425;DHT22;8830;50.978;5.058;2022-09-25T08:26:16;21.40;99.90
17425;DHT22;8830;50.978;5.058;2022-09-25T08:28:44;21.00;99.90
17425;DHT22;8830;50.978;5.058;2022-09-25T08:31:11;20.60;99.90
17425;DHT22;8830;50.978;5.058;2022-09-25T08:33:43;20.40;99.90
17425;DHT22;8830;50.978;5.058;2022-09-25T08:36:19;20.50;99.90
17425;DHT22;8830;50.978;5.058;2022-09-25T08:38:47;20.50;99.90
17425;DHT22;8830;50.978;5.058;2022-09-25T08:41:16;20.40;99.90
17425;DHT22;8830;50.978;5.058;2022-09-25T08:43:56;19.60;99.90
17425;DHT22;8830;50.978;5.058;2022-09-25T08:49:19;18.60;99.90
17425;DHT22;8830;50.978;5.058;2022-09-25T08:51:54;18.30;99.90
17425;DHT22;8830;50.978;5.058;2022-09-25T08:54:26;18.10;99.90
17425;DHT22;8830;50.978;5.058;2022-09-25T08:56:57;17.90;99.90
17425;DHT22;8830;50.978;5.058;2022-09-25T08:59:29;17.90;99.90
17425;DHT22;8830;50.978;5.058;2022-09-25T09:02:00;17.70;99.90
17425;DHT22;8830;50.978;5.058;2022-09-25T09:04:30;17.40;99.90
17425;DHT22;8830;50.978;5.058;2022-09-25T09:07:04;17.40;99.90
17425;DHT22;8830;50.978;5.058;2022-09-25T09:09:37;17.50;99.90
17425;DHT22;8830;50.978;5.058;2022-09-25T09:12:10;17.50;99.90
17425;DHT22;8830;50.978;5.058;2022-09-25T09:14:42;17.60;99.90
17425;DHT22;8830;50.978;5.058;2022-09-25T09:17:15;17.60;99.90
17425;DHT22;8830;50.978;5.058;2022-09-25T09:19:47;17.60;99.90
17425;DHT22;8830;50.978;5.058;2022-09-25T09:22:22;17.50;99.90
17425;DHT22;8830;50.978;5.058;2022-09-25T09:24:54;18.10;99.90
17425;DHT22;8830;50.978;5.058;2022-09-25T09:27:39;18.20;99.90
17425;DHT22;8830;50.978;5.058;2022-09-25T09:30:12;18.10;99.90
17425;DHT22;8830;50.978;5.058;2022-09-25T09:32:49;18.00;99.90
17425;DHT22;8830;50.978;5.058;2022-09-25T09:35:26;17.30;99.90
17425;DHT22;8830;50.978;5.058;2022-09-25T09:38:10;17.40;99.90
17425;DHT22;8830;50.978;5.058;2022-09-25T09:41:01;17.50;99.90
17425;DHT22;8830;50.978;5.058;2022-09-25T09:43:44;17.60;99.90
17425;DHT22;8830;50.978;5.058;2022-09-25T09:46:19;17.70;99.90
17425;DHT22;8830;50.978;5.058;2022-09-25T09:49:00;17.70;99.90
17425;DHT22;8830;50.978;5.058;2022-09-25T09:51:32;18.00;99.90
17425;DHT22;8830;50.978;5.058;2022-09-25T09:54:07;18.10;99.90
17425;DHT22;8830;50.978;5.058;2022-09-25T09:56:40;18.00;99.90
17425;DHT22;8830;50.978;5.058;2022-09-25T09:59:14;17.90;99.90
17425;DHT22;8830;50.978;5.058;2022-09-25T10:01:44;18.00;99.90
17425;DHT22;8830;50.978;5.058;2022-09-25T10:06:45;18.30;99.90
17425;DHT22;8830;50.978;5.058;2022-09-25T10:09:16;18.20;99.90
17425;DHT22;8830;50.978;5.058;2022-09-25T10:11:46;18.40;99.90
17425;DHT22;8830;50.978;5.058;2022-09-25T10:14:17;18.40;99.90
17425;DHT22;8830;50.978;5.058;2022-09-25T10:16:47;18.30;99.90
17425;DHT22;8830;50.978;5.058;2022-09-25T10:19:17;18.30;99.90
17425;DHT22;8830;50.978;5.058;2022-09-25T10:21:48;18.20;99.90
17425;DHT22;8830;50.978;5.058;2022-09-25T10:24:46;18.10;99.90
17425;DHT22;8830;50.978;5.058;2022-09-25T10:27:24;18.10;99.90
17425;DHT22;8830;50.978;5.058;2022-09-25T10:30:05;18.40;99.90
17425;DHT22;8830;50.978;5.058;2022-09-25T10:32:33;18.60;99.90
17425;DHT22;8830;50.978;5.058;2022-09-25T10:35:02;18.60;99.90
17425;DHT22;8830;50.978;5.058;2022-09-25T10:37:32;18.50;99.90
17425;DHT22;8830;50.978;5.058;2022-09-25T10:40:04;18.40;99.90
17425;DHT22;8830;50.978;5.058;2022-09-25T10:42:37;18.10;99.90
17425;DHT22;8830;50.978;5.058;2022-09-25T10:45:29;18.00;99.90
17425;DHT22;8830;50.978;5.058;2022-09-25T10:47:57;18.00;99.90
17425;DHT22;8830;50.978;5.058;2022-09-25T10:50:42;18.10;99.90
17425;DHT22;8830;50.978;5.058;2022-09-25T10:53:28;18.20;99.90
17425;DHT22;8830;50.978;5.058;2022-09-25T10:56:02;18.40;99.90
17425;DHT22;8830;50.978;5.058;2022-09-25T10:58:35;18.70;99.90
17425;DHT22;8830;50.978;5.058;2022-09-25T11:01:06;18.10;99.90
17425;DHT22;8830;50.978;5.058;2022-09-25T11:03:45;18.60;99.90
17425;DHT22;8830;50.978;5.058;2022-09-25T11:06:19;18.60;99.90
17425;DHT22;8830;50.978;5.058;2022-09-25T11:08:53;17.90;99.90
17425;DHT22;8830;50.978;5.058;2022-09-25T11:11:22;17.90;99.90
17425;DHT22;8830;50.978;5.058;2022-09-25T11:13:54;18.00;99.90
17425;DHT22;8830;50.978;5.058;2022-09-25T11:16:45;18.20;99.90
17425;DHT22;8830;50.978;5.058;2022-09-25T11:19:15;18.20;99.90
17425;DHT22;8830;50.978;5.058;2022-09-25T11:21:50;18.60;99.90
17425;DHT22;8830;50.978;5.058;2022-09-25T11:24:26;18.60;99.90
17425;DHT22;8830;50.978;5.058;2022-09-25T11:27:03;19.10;99.90
17425;DHT22;8830;50.978;5.058;2022-09-25T11:29:41;19.20;99.90
17425;DHT22;8830;50.978;5.058;2022-09-25T11:32:18;19.40;99.90
17425;DHT22;8830;50.978;5.058;2022-09-25T11:34:57;19.40;99.90
17425;DHT22;8830;50.978;5.058;2022-09-25T11:37:33;19.40;99.90
17425;DHT22;8830;50.978;5.058;2022-09-25T11:43:14;19.00;99.90
17425;DHT22;8830;50.978;5.058;2022-09-25T11:45:46;19.00;99.90
17425;DHT22;8830;50.978;5.058;2022-09-25T11:48:19;18.90;99.90
17425;DHT22;8830;50.978;5.058;2022-09-25T11:50:56;18.80;99.90
17425;DHT22;8830;50.978;5.058;2022-09-25T11:53:33;18.70;99.90
17425;DHT22;8830;50.978;5.058;2022-09-25T11:56:13;18.70;99.90
17425;DHT22;8830;50.978;5.058;2022-09-25T11:58:59;18.70;99.90
17425;DHT22;8830;50.978;5.058;2022-09-25T12:01:33;18.60;99.90
17425;DHT22;8830;50.978;5.058;2022-09-25T12:04:25;18.50;99.90
17425;DHT22;8830;50.978;5.058;2022-09-25T12:07:13;18.60;99.90
17425;DHT22;8830;50.978;5.058;2022-09-25T12:09:59;18.60;99.90
17425;DHT22;8830;50.978;5.058;2022-09-25T12:12:34;18.60;99.90
17425;DHT22;8830;50.978;5.058;2022-09-25T12:15:14;18.70;99.90
17425;DHT22;8830;50.978;5.058;2022-09-25T12:17:51;18.60;99.90
17425;DHT22;8830;50.978;5.058;2022-09-25T12:20:26;18.50;99.90
17425;DHT22;8830;50.978;5.058;2022-09-25T12:23:09;18.30;99.90
17425;DHT22;8830;50.978;5.058;2022-09-25T12:26:08;18.20;99.90
17425;DHT22;8830;50.978;5.058;2022-09-25T12:28:45;18.50;99.90
17425;DHT22;8830;50.978;5.058;2022-09-25T12:31:27;18.50;99.90
17425;DHT22;8830;50.978;5.058;2022-09-25T12:34:01;18.70;99.90
17425;DHT22;8830;50.978;5.058;2022-09-25T12:36:36;18.80;99.90
17425;DHT22;8830;50.978;5.058;2022-09-25T12:39:22;18.90;99.90
17425;DHT22;8830;50.978;5.058;2022-09-25T12:41:54;18.90;99.90
17425;DHT22;8830;50.978;5.058;2022-09-25T12:44:37;18.70;99.90
17425;DHT22;8830;50.978;5.058;2022-09-25T12:47:08;18.60;99.90
17425;DHT22;8830;50.978;5.058;2022-09-25T12:49:41;18.80;99.90
17425;DHT22;8830;50.978;5.058;2022-09-25T12:52:16;19.10;99.90
17425;DHT22;8830;50.978;5.058;2022-09-25T12:54:51;19.20;99.90
17425;DHT22;8830;50.978;5.058;2022-09-25T12:57:23;19.20;99.90
17425;DHT22;8830;50.978;5.058;2022-09-25T12:59:55;19.20;99.90
17425;DHT22;8830;50.978;5.058;2022-09-25T13:02:33;19.30;99.90
17425;DHT22;8830;50.978;5.058;2022-09-25T13:05:08;19.40;99.90
17425;DHT22;8830;50.978;5.058;2022-09-25T13:07:41;19.60;99.90
17425;DHT22;8830;50.978;5.058;2022-09-25T13:10:20;19.70;99.90
17425;DHT22;8830;50.978;5.058;2022-09-25T13:12:52;19.50;99.90
17425;DHT22;8830;50.978;5.058;2022-09-25T13:15:24;19.50;99.90
17425;DHT22;8830;50.978;5.058;2022-09-25T13:17:54;19.60;99.90
17425;DHT22;8830;50.978;5.058;2022-09-25T13:20:47;19.50;99.90
17425;DHT22;8830;50.978;5.058;2022-09-25T13:23:17;19.60;99.90
17425;DHT22;8830;50.978;5.058;2022-09-25T13:25:50;19.80;99.90
17425;DHT22;8830;50.978;5.058;2022-09-25T13:28:27;19.80;99.90
17425;DHT22;8830;50.978;5.058;2022-09-25T13:31:04;19.90;99.90
17425;DHT22;8830;50.978;5.058;2022-09-25T13:33:44;20.00;99.90
17425;DHT22;8830;50.978;5.058;2022-09-25T13:36:29;19.90;99.90
17425;DHT22;8830;50.978;5.058;2022-09-25T13:39:00;20.00;99.90
17425;DHT22;8830;50.978;5.058;2022-09-25T13:41:50;20.00;99.90
17425;DHT22;8830;50.978;5.058;2022-09-25T13:44:43;20.10;99.90
17425;DHT22;8830;50.978;5.058;2022-09-25T13:47:39;20.10;99.90
17425;DHT22;8830;50.978;5.058;2022-09-25T13:50:31;20.00;99.90
17425;DHT22;8830;50.978;5.058;2022-09-25T13:56:22;20.30;99.90
17425;DHT22;8830;50.978;5.058;2022-09-25T13:59:18;20.00;99.90
17425;DHT22;8830;50.978;5.058;2022-09-25T14:01:48;19.70;99.90
17425;DHT22;8830;50.978;5.058;2022-09-25T14:07:23;19.20;99.90
17425;DHT22;8830;50.978;5.058;2022-09-25T14:09:53;18.70;99.90
17425;DHT22;8830;50.978;5.058;2022-09-25T14:12:31;18.70;99.90
17425;DHT22;8830;50.978;5.058;2022-09-25T14:15:05;18.80;99.90
17425;DHT22;8830;50.978;5.058;2022-09-25T14:17:35;18.90;99.90
17425;DHT22;8830;50.978;5.058;2022-09-25T14:20:05;19.00;99.90
17425;DHT22;8830;50.978;5.058;2022-09-25T14:22:42;19.30;99.90
17425;DHT22;8830;50.978;5.058;2022-09-25T14:25:30;19.30;99.90
17425;DHT22;8830;50.978;5.058;2022-09-25T14:28:02;19.30;99.90
17425;DHT22;8830;50.978;5.058;2022-09-25T14:30:30;19.40;99.90
17425;DHT22;8830;50.978;5.058;2022-09-25T14:33:22;19.40;99.90
17425;DHT22;8830;50.978;5.058;2022-09-25T14:35:58;19.30;99.90
17425;DHT22;8830;50.978;5.058;2022-09-25T14:42:03;19.20;99.90
17425;DHT22;8830;50.978;5.058;2022-09-25T14:44:56;19.10;99.90
17425;DHT22;8830;50.978;5.058;2022-09-25T14:47:31;19.00;99.90
17425;DHT22;8830;50.978;5.058;2022-09-25T14:49:59;19.10;99.90
17425;DHT22;8830;50.978;5.058;2022-09-25T14:52:29;19.00;99.90
17425;DHT22;8830;50.978;5.058;2022-09-25T14:54:59;19.10;99.90
17425;DHT22;8830;50.978;5.058;2022-09-25T14:57:30;19.10;99.90
17425;DHT22;8830;50.978;5.058;2022-09-25T15:00:00;19.10;99.90
17425;DHT22;8830;50.978;5.058;2022-09-25T15:02:30;19.00;99.90
17425;DHT22;8830;50.978;5.058;2022-09-25T15:07:42;19.00;99.90
17425;DHT22;8830;50.978;5.058;2022-09-25T15:10:28;18.90;99.90
17425;DHT22;8830;50.978;5.058;2022-09-25T15:13:05;19.00;99.90
17425;DHT22;8830;50.978;5.058;2022-09-25T15:15:35;19.10;99.90
17425;DHT22;8830;50.978;5.058;2022-09-25T15:18:03;19.30;99.90
17425;DHT22;8830;50.978;5.058;2022-09-25T15:20:33;19.30;99.90
17425;DHT22;8830;50.978;5.058;2022-09-25T15:23:03;19.30;99.90
17425;DHT22;8830;50.978;5.058;2022-09-25T15:25:36;19.20;99.90
17425;DHT22;8830;50.978;5.058;2022-09-25T15:28:04;19.20;99.90
17425;DHT22;8830;50.978;5.058;2022-09-25T15:30:34;19.00;99.90
17425;DHT22;8830;50.978;5.058;2022-09-25T15:33:03;18.70;99.90
17425;DHT22;8830;50.978;5.058;2022-09-25T15:35:30;18.70;99.90
17425;DHT22;8830;50.978;5.058;2022-09-25T15:38:03;18.50;99.90
17425;DHT22;8830;50.978;5.058;2022-09-25T15:40:35;18.40;99.90
17425;DHT22;8830;50.978;5.058;2022-09-25T15:43:02;18.40;99.90
17425;DHT22;8830;50.978;5.058;2022-09-25T15:45:38;18.20;99.90
17425;DHT22;8830;50.978;5.058;2022-09-25T15:48:20;18.20;99.90
17425;DHT22;8830;50.978;5.058;2022-09-25T15:50:50;18.20;99.90
17425;DHT22;8830;50.978;5.058;2022-09-25T15:53:21;18.10;99.90
17425;DHT22;8830;50.978;5.058;2022-09-25T15:56:03;18.10;99.90
17425;DHT22;8830;50.978;5.058;2022-09-25T15:58:41;18.00;99.90
17425;DHT22;8830;50.978;5.058;2022-09-25T16:01:11;17.80;99.90
17425;DHT22;8830;50.978;5.058;2022-09-25T16:03:56;17.70;99.90
17425;DHT22;8830;50.978;5.058;2022-09-25T16:06:53;17.80;99.90
17425;DHT22;8830;50.978;5.058;2022-09-25T16:09:28;17.80;99.90
17425;DHT22;8830;50.978;5.058;2022-09-25T16:12:28;17.70;99.90
17425;DHT22;8830;50.978;5.058;2022-09-25T16:15:34;17.70;99.90
17425;DHT22;8830;50.978;5.058;2022-09-25T16:17:47;17.60;99.90
17425;DHT22;8830;50.978;5.058;2022-09-25T16:20:28;17.60;99.90
17425;DHT22;8830;50.978;5.058;2022-09-25T16:22:58;17.60;99.90
17425;DHT22;8830;50.978;5.058;2022-09-25T16:25:28;17.50;99.90
17425;DHT22;8830;50.978;5.058;2022-09-25T16:28:03;17.50;99.90
17425;DHT22;8830;50.978;5.058;2022-09-25T16:30:32;17.40;99.90
17425;DHT22;8830;50.978;5.058;2022-09-25T16:33:04;17.40;99.90
17425;DHT22;8830;50.978;5.058;2022-09-25T16:35:35;17.40;99.90
17425;DHT22;8830;50.978;5.058;2022-09-25T16:38:03;17.40;99.90
17425;DHT22;8830;50.978;5.058;2022-09-25T16:40:31;17.20;99.90
17425;DHT22;8830;50.978;5.058;2022-09-25T16:43:24;17.20;99.90
17425;DHT22;8830;50.978;5.058;2022-09-25T16:45:58;17.10;99.90